Página principal
METAR-TAF:

METAR-TAF

Aeroportos :

Teller, Alasca, Estados Unidos

latitude: 65-14-25N, longitude: 166-20-22W, altura: 90 m

Observação actual do tempo

O boletim foi feito há 42 minutos, às 06:56 UTC
Vento 4 kt de oeste
Temperatura 6°C
Humidade 87%
Pressão 1014 hPa
Visibilidade: 16.1 km
Céu limpo

METAR: PATE 250656Z AUTO 28004KT 10SM CLR 06/04 A2994 RMK AO2 SLP141 T00560039 TSNO

Hora: 23:38 (07:38 UTC)


TAF: em falta

Observações e previsões do tempo de mais de 4000 aeroportos (mensagens METAR e TAF).

As estações disponíveis são os pontos amarelos e vermelhos sobre o mapa.

Mova o rato sobre o mapa para ver o nome da estação.

Depois clique no ponto para visualizar as observações e previsões meteorológicas.

Para alterar o mapa : clique nos botões verdes com uma cruz preta para aumentar o zoom; no botão verde com uma pitada de zoom; ou nas setas verdes para mapas adjacentes.


METAR-TAF: